sensor_id;sensor_type;location;lat;lon;timestamp;P1;durP1;ratioP1;P2;durP2;ratioP2
74543;SDS011;63016;55.030;38.710;2022-12-29T00:01:46;6.07;;;2.28;;
74543;SDS011;63016;55.030;38.710;2022-12-29T00:04:13;6.18;;;2.22;;
74543;SDS011;63016;55.030;38.710;2022-12-29T00:06:39;9.38;;;2.00;;
74543;SDS011;63016;55.030;38.710;2022-12-29T00:09:05;5.47;;;1.70;;
74543;SDS011;63016;55.030;38.710;2022-12-29T00:11:30;6.13;;;1.88;;
74543;SDS011;63016;55.030;38.710;2022-12-29T00:13:56;5.43;;;1.73;;
74543;SDS011;63016;55.030;38.710;2022-12-29T00:16:40;5.78;;;1.58;;
74543;SDS011;63016;55.030;38.710;2022-12-29T00:19:08;6.85;;;1.80;;
74543;SDS011;63016;55.030;38.710;2022-12-29T00:21:53;6.38;;;1.52;;
74543;SDS011;63016;55.030;38.710;2022-12-29T00:24:37;7.63;;;1.80;;
74543;SDS011;63016;55.030;38.710;2022-12-29T00:27:21;3.60;;;1.40;;
74543;SDS011;63016;55.030;38.710;2022-12-29T00:30:09;6.47;;;1.80;;
74543;SDS011;63016;55.030;38.710;2022-12-29T00:32:54;4.60;;;1.73;;
74543;SDS011;63016;55.030;38.710;2022-12-29T00:35:39;4.60;;;1.25;;
74543;SDS011;63016;55.030;38.710;2022-12-29T00:38:10;6.40;;;1.50;;
74543;SDS011;63016;55.030;38.710;2022-12-29T00:40:55;3.88;;;1.50;;
74543;SDS011;63016;55.030;38.710;2022-12-29T00:43:39;4.10;;;1.73;;
74543;SDS011;63016;55.030;38.710;2022-12-29T00:46:23;6.20;;;1.70;;
74543;SDS011;63016;55.030;38.710;2022-12-29T00:48:49;3.90;;;1.50;;
74543;SDS011;63016;55.030;38.710;2022-12-29T00:51:33;7.20;;;2.17;;
74543;SDS011;63016;55.030;38.710;2022-12-29T00:53:58;5.10;;;2.33;;
74543;SDS011;63016;55.030;38.710;2022-12-29T00:56:24;4.60;;;1.35;;
74543;SDS011;63016;55.030;38.710;2022-12-29T00:58:49;4.03;;;1.50;;
74543;SDS011;63016;55.030;38.710;2022-12-29T01:01:15;6.88;;;1.65;;
74543;SDS011;63016;55.030;38.710;2022-12-29T01:03:40;4.95;;;1.80;;
74543;SDS011;63016;55.030;38.710;2022-12-29T01:06:07;4.95;;;1.73;;
74543;SDS011;63016;55.030;38.710;2022-12-29T01:08:34;4.45;;;1.67;;
74543;SDS011;63016;55.030;38.710;2022-12-29T01:11:04;3.78;;;1.42;;
74543;SDS011;63016;55.030;38.710;2022-12-29T01:13:34;3.42;;;1.35;;
74543;SDS011;63016;55.030;38.710;2022-12-29T01:16:00;4.90;;;1.25;;
74543;SDS011;63016;55.030;38.710;2022-12-29T01:18:26;1.77;;;1.10;;
74543;SDS011;63016;55.030;38.710;2022-12-29T01:20:59;4.88;;;1.30;;
74543;SDS011;63016;55.030;38.710;2022-12-29T01:23:26;3.90;;;1.10;;
74543;SDS011;63016;55.030;38.710;2022-12-29T01:25:52;4.07;;;1.05;;
74543;SDS011;63016;55.030;38.710;2022-12-29T01:28:17;4.82;;;1.10;;
74543;SDS011;63016;55.030;38.710;2022-12-29T01:30:43;3.85;;;1.10;;
74543;SDS011;63016;55.030;38.710;2022-12-29T01:33:08;2.88;;;0.80;;
74543;SDS011;63016;55.030;38.710;2022-12-29T01:35:34;4.82;;;1.00;;
74543;SDS011;63016;55.030;38.710;2022-12-29T01:37:59;2.72;;;0.93;;
74543;SDS011;63016;55.030;38.710;2022-12-29T01:40:25;4.22;;;1.00;;
74543;SDS011;63016;55.030;38.710;2022-12-29T01:42:50;3.97;;;0.90;;
74543;SDS011;63016;55.030;38.710;2022-12-29T01:45:17;3.13;;;0.80;;
74543;SDS011;63016;55.030;38.710;2022-12-29T01:47:43;4.85;;;0.70;;
74543;SDS011;63016;55.030;38.710;2022-12-29T01:50:30;3.40;;;1.00;;
74543;SDS011;63016;55.030;38.710;2022-12-29T01:53:16;5.93;;;0.98;;
74543;SDS011;63016;55.030;38.710;2022-12-29T01:55:50;4.57;;;0.60;;
74543;SDS011;63016;55.030;38.710;2022-12-29T01:58:35;4.78;;;0.93;;
74543;SDS011;63016;55.030;38.710;2022-12-29T02:01:04;4.70;;;0.75;;
74543;SDS011;63016;55.030;38.710;2022-12-29T02:03:30;1.60;;;0.73;;
74543;SDS011;63016;55.030;38.710;2022-12-29T02:08:42;2.92;;;0.80;;
74543;SDS011;63016;55.030;38.710;2022-12-29T02:11:11;1.30;;;0.55;;
74543;SDS011;63016;55.030;38.710;2022-12-29T02:13:37;3.38;;;0.73;;
74543;SDS011;63016;55.030;38.710;2022-12-29T02:46:12;1.90;;;0.70;;
74543;SDS011;63016;55.030;38.710;2022-12-29T02:49:08;3.63;;;0.80;;
74543;SDS011;63016;55.030;38.710;2022-12-29T02:54:20;0.95;;;0.60;;
74543;SDS011;63016;55.030;38.710;2022-12-29T02:57:07;2.60;;;0.50;;
74543;SDS011;63016;55.030;38.710;2022-12-29T02:59:53;3.28;;;0.63;;
74543;SDS011;63016;55.030;38.710;2022-12-29T03:05:32;5.43;;;0.70;;
74543;SDS011;63016;55.030;38.710;2022-12-29T03:10:30;1.55;;;0.60;;
74543;SDS011;63016;55.030;38.710;2022-12-29T03:21:48;3.35;;;0.70;;
74543;SDS011;63016;55.030;38.710;2022-12-29T03:24:38;4.18;;;0.60;;
74543;SDS011;63016;55.030;38.710;2022-12-29T03:27:07;3.75;;;0.57;;
74543;SDS011;63016;55.030;38.710;2022-12-29T03:29:37;3.42;;;0.50;;
74543;SDS011;63016;55.030;38.710;2022-12-29T03:32:07;3.47;;;0.70;;
74543;SDS011;63016;55.030;38.710;2022-12-29T03:34:35;1.63;;;0.65;;
74543;SDS011;63016;55.030;38.710;2022-12-29T03:37:06;3.83;;;0.60;;
74543;SDS011;63016;55.030;38.710;2022-12-29T03:39:37;0.95;;;0.40;;
74543;SDS011;63016;55.030;38.710;2022-12-29T03:42:11;3.05;;;0.50;;
74543;SDS011;63016;55.030;38.710;2022-12-29T03:44:41;2.97;;;0.60;;
74543;SDS011;63016;55.030;38.710;2022-12-29T03:47:09;5.18;;;0.50;;
74543;SDS011;63016;55.030;38.710;2022-12-29T03:49:36;3.53;;;0.70;;
74543;SDS011;63016;55.030;38.710;2022-12-29T03:52:01;2.35;;;0.40;;
74543;SDS011;63016;55.030;38.710;2022-12-29T03:54:27;4.07;;;0.70;;
74543;SDS011;63016;55.030;38.710;2022-12-29T03:56:52;2.03;;;0.35;;
74543;SDS011;63016;55.030;38.710;2022-12-29T03:59:18;2.53;;;0.50;;
74543;SDS011;63016;55.030;38.710;2022-12-29T04:01:43;5.05;;;0.73;;
74543;SDS011;63016;55.030;38.710;2022-12-29T04:04:09;5.28;;;0.52;;
74543;SDS011;63016;55.030;38.710;2022-12-29T04:06:34;2.67;;;0.50;;
74543;SDS011;63016;55.030;38.710;2022-12-29T04:09:00;2.60;;;0.57;;
74543;SDS011;63016;55.030;38.710;2022-12-29T04:11:26;6.82;;;0.75;;
74543;SDS011;63016;55.030;38.710;2022-12-29T04:13:51;5.63;;;0.80;;
74543;SDS011;63016;55.030;38.710;2022-12-29T04:16:17;3.47;;;0.60;;
74543;SDS011;63016;55.030;38.710;2022-12-29T04:18:42;1.70;;;0.63;;
74543;SDS011;63016;55.030;38.710;2022-12-29T04:21:08;4.93;;;0.70;;
74543;SDS011;63016;55.030;38.710;2022-12-29T04:23:35;3.25;;;0.70;;
74543;SDS011;63016;55.030;38.710;2022-12-29T04:26:02;4.93;;;0.93;;
74543;SDS011;63016;55.030;38.710;2022-12-29T04:28:28;4.47;;;1.55;;
74543;SDS011;63016;55.030;38.710;2022-12-29T04:30:54;5.55;;;1.58;;
74543;SDS011;63016;55.030;38.710;2022-12-29T04:33:20;6.35;;;0.73;;
74543;SDS011;63016;55.030;38.710;2022-12-29T04:35:46;3.45;;;0.63;;
74543;SDS011;63016;55.030;38.710;2022-12-29T04:38:11;4.40;;;1.17;;
74543;SDS011;63016;55.030;38.710;2022-12-29T04:40:38;4.82;;;0.70;;
74543;SDS011;63016;55.030;38.710;2022-12-29T04:43:04;4.97;;;0.80;;
74543;SDS011;63016;55.030;38.710;2022-12-29T04:45:30;5.43;;;0.80;;
74543;SDS011;63016;55.030;38.710;2022-12-29T04:47:56;4.20;;;0.75;;
74543;SDS011;63016;55.030;38.710;2022-12-29T04:50:21;4.47;;;0.80;;
74543;SDS011;63016;55.030;38.710;2022-12-29T04:52:47;2.60;;;0.70;;
74543;SDS011;63016;55.030;38.710;2022-12-29T04:55:12;3.17;;;1.10;;
74543;SDS011;63016;55.030;38.710;2022-12-29T04:57:38;5.28;;;0.82;;
74543;SDS011;63016;55.030;38.710;2022-12-29T05:00:03;6.60;;;1.25;;
74543;SDS011;63016;55.030;38.710;2022-12-29T05:02:30;7.53;;;1.17;;
74543;SDS011;63016;55.030;38.710;2022-12-29T05:04:55;1.75;;;0.70;;
74543;SDS011;63016;55.030;38.710;2022-12-29T05:07:21;5.15;;;1.17;;
74543;SDS011;63016;55.030;38.710;2022-12-29T05:09:46;2.85;;;0.82;;
74543;SDS011;63016;55.030;38.710;2022-12-29T05:12:12;5.93;;;0.88;;
74543;SDS011;63016;55.030;38.710;2022-12-29T05:14:37;10.38;;;1.10;;
74543;SDS011;63016;55.030;38.710;2022-12-29T05:17:02;3.47;;;0.90;;
74543;SDS011;63016;55.030;38.710;2022-12-29T05:19:28;5.22;;;0.90;;
74543;SDS011;63016;55.030;38.710;2022-12-29T05:21:53;4.85;;;1.05;;
74543;SDS011;63016;55.030;38.710;2022-12-29T05:24:19;4.88;;;1.60;;
74543;SDS011;63016;55.030;38.710;2022-12-29T05:26:45;8.15;;;1.20;;
74543;SDS011;63016;55.030;38.710;2022-12-29T05:29:10;9.00;;;1.25;;
74543;SDS011;63016;55.030;38.710;2022-12-29T05:31:36;4.32;;;1.20;;
74543;SDS011;63016;55.030;38.710;2022-12-29T05:34:01;3.78;;;1.40;;
74543;SDS011;63016;55.030;38.710;2022-12-29T05:36:27;6.97;;;1.92;;
74543;SDS011;63016;55.030;38.710;2022-12-29T05:38:53;6.57;;;1.40;;
74543;SDS011;63016;55.030;38.710;2022-12-29T05:41:18;4.75;;;1.67;;
74543;SDS011;63016;55.030;38.710;2022-12-29T05:43:44;6.40;;;1.75;;
74543;SDS011;63016;55.030;38.710;2022-12-29T05:46:09;3.40;;;1.40;;
74543;SDS011;63016;55.030;38.710;2022-12-29T05:48:35;13.90;;;1.80;;
74543;SDS011;63016;55.030;38.710;2022-12-29T05:51:00;4.95;;;1.52;;
74543;SDS011;63016;55.030;38.710;2022-12-29T05:53:26;4.55;;;1.15;;
74543;SDS011;63016;55.030;38.710;2022-12-29T05:55:51;5.30;;;1.60;;
74543;SDS011;63016;55.030;38.710;2022-12-29T05:58:17;4.82;;;1.40;;
74543;SDS011;63016;55.030;38.710;2022-12-29T06:00:43;3.42;;;1.15;;
74543;SDS011;63016;55.030;38.710;2022-12-29T06:03:09;4.55;;;1.35;;
74543;SDS011;63016;55.030;38.710;2022-12-29T06:05:34;4.03;;;1.60;;
74543;SDS011;63016;55.030;38.710;2022-12-29T06:08:00;5.70;;;1.50;;
74543;SDS011;63016;55.030;38.710;2022-12-29T06:10:25;6.57;;;1.63;;
74543;SDS011;63016;55.030;38.710;2022-12-29T06:12:51;8.93;;;1.80;;
74543;SDS011;63016;55.030;38.710;2022-12-29T06:15:17;6.00;;;1.45;;
74543;SDS011;63016;55.030;38.710;2022-12-29T06:17:43;4.20;;;1.70;;
74543;SDS011;63016;55.030;38.710;2022-12-29T06:20:09;4.78;;;1.83;;
74543;SDS011;63016;55.030;38.710;2022-12-29T06:22:35;10.73;;;2.00;;
74543;SDS011;63016;55.030;38.710;2022-12-29T06:25:01;6.15;;;1.83;;
74543;SDS011;63016;55.030;38.710;2022-12-29T06:27:28;4.55;;;1.90;;
74543;SDS011;63016;55.030;38.710;2022-12-29T06:29:53;7.65;;;1.70;;
74543;SDS011;63016;55.030;38.710;2022-12-29T06:32:19;7.47;;;2.15;;
74543;SDS011;63016;55.030;38.710;2022-12-29T06:34:45;7.28;;;2.45;;
74543;SDS011;63016;55.030;38.710;2022-12-29T06:37:10;5.20;;;1.95;;
74543;SDS011;63016;55.030;38.710;2022-12-29T06:39:36;4.55;;;1.60;;
74543;SDS011;63016;55.030;38.710;2022-12-29T06:42:01;6.53;;;1.77;;
74543;SDS011;63016;55.030;38.710;2022-12-29T06:44:27;5.47;;;1.60;;
74543;SDS011;63016;55.030;38.710;2022-12-29T06:46:53;7.45;;;1.65;;
74543;SDS011;63016;55.030;38.710;2022-12-29T06:49:19;6.75;;;1.60;;
74543;SDS011;63016;55.030;38.710;2022-12-29T06:51:44;5.80;;;1.50;;
74543;SDS011;63016;55.030;38.710;2022-12-29T06:54:10;6.95;;;1.70;;
74543;SDS011;63016;55.030;38.710;2022-12-29T06:56:36;7.00;;;1.58;;
74543;SDS011;63016;55.030;38.710;2022-12-29T06:59:01;6.03;;;1.58;;
74543;SDS011;63016;55.030;38.710;2022-12-29T07:01:28;3.40;;;1.45;;
74543;SDS011;63016;55.030;38.710;2022-12-29T07:03:54;8.13;;;1.90;;
74543;SDS011;63016;55.030;38.710;2022-12-29T07:06:19;7.30;;;1.80;;
74543;SDS011;63016;55.030;38.710;2022-12-29T07:08:45;7.25;;;1.73;;
74543;SDS011;63016;55.030;38.710;2022-12-29T07:11:11;4.97;;;1.90;;
74543;SDS011;63016;55.030;38.710;2022-12-29T07:13:36;6.55;;;1.77;;
74543;SDS011;63016;55.030;38.710;2022-12-29T07:16:05;5.88;;;1.80;;
74543;SDS011;63016;55.030;38.710;2022-12-29T07:18:32;10.35;;;2.17;;
74543;SDS011;63016;55.030;38.710;2022-12-29T07:20:57;7.85;;;1.60;;
74543;SDS011;63016;55.030;38.710;2022-12-29T07:23:23;5.03;;;1.58;;
74543;SDS011;63016;55.030;38.710;2022-12-29T07:25:48;5.00;;;1.95;;
74543;SDS011;63016;55.030;38.710;2022-12-29T07:28:14;6.00;;;2.17;;
74543;SDS011;63016;55.030;38.710;2022-12-29T07:30:39;8.18;;;1.75;;
74543;SDS011;63016;55.030;38.710;2022-12-29T07:33:05;5.85;;;1.70;;
74543;SDS011;63016;55.030;38.710;2022-12-29T07:35:30;6.72;;;2.28;;
74543;SDS011;63016;55.030;38.710;2022-12-29T07:37:56;6.65;;;1.80;;
74543;SDS011;63016;55.030;38.710;2022-12-29T07:40:21;6.20;;;1.95;;
74543;SDS011;63016;55.030;38.710;2022-12-29T07:42:47;6.70;;;2.00;;
74543;SDS011;63016;55.030;38.710;2022-12-29T07:45:12;5.53;;;2.15;;
74543;SDS011;63016;55.030;38.710;2022-12-29T07:47:38;4.78;;;1.77;;
74543;SDS011;63016;55.030;38.710;2022-12-29T07:50:04;4.85;;;2.00;;
74543;SDS011;63016;55.030;38.710;2022-12-29T07:52:30;4.80;;;1.73;;
74543;SDS011;63016;55.030;38.710;2022-12-29T07:54:55;8.75;;;1.98;;
74543;SDS011;63016;55.030;38.710;2022-12-29T07:57:21;6.63;;;2.15;;
74543;SDS011;63016;55.030;38.710;2022-12-29T07:59:46;5.95;;;1.88;;
74543;SDS011;63016;55.030;38.710;2022-12-29T08:02:12;2.55;;;1.45;;
74543;SDS011;63016;55.030;38.710;2022-12-29T08:04:37;7.45;;;2.10;;
74543;SDS011;63016;55.030;38.710;2022-12-29T08:07:03;9.10;;;2.92;;
74543;SDS011;63016;55.030;38.710;2022-12-29T08:09:28;9.70;;;2.17;;
74543;SDS011;63016;55.030;38.710;2022-12-29T08:11:54;8.48;;;2.20;;
74543;SDS011;63016;55.030;38.710;2022-12-29T08:14:19;6.03;;;2.28;;
74543;SDS011;63016;55.030;38.710;2022-12-29T08:16:45;8.02;;;1.83;;
74543;SDS011;63016;55.030;38.710;2022-12-29T08:19:11;5.35;;;2.05;;
74543;SDS011;63016;55.030;38.710;2022-12-29T08:21:37;3.90;;;2.05;;
74543;SDS011;63016;55.030;38.710;2022-12-29T08:24:04;6.93;;;2.35;;
74543;SDS011;63016;55.030;38.710;2022-12-29T08:26:30;6.22;;;2.00;;
74543;SDS011;63016;55.030;38.710;2022-12-29T08:28:56;7.90;;;1.90;;
74543;SDS011;63016;55.030;38.710;2022-12-29T08:31:22;5.32;;;1.67;;
74543;SDS011;63016;55.030;38.710;2022-12-29T08:33:49;8.00;;;2.08;;
74543;SDS011;63016;55.030;38.710;2022-12-29T08:36:14;7.72;;;2.35;;
74543;SDS011;63016;55.030;38.710;2022-12-29T08:38:40;5.00;;;2.25;;
74543;SDS011;63016;55.030;38.710;2022-12-29T08:41:05;5.35;;;1.92;;
74543;SDS011;63016;55.030;38.710;2022-12-29T08:43:31;5.97;;;1.95;;
74543;SDS011;63016;55.030;38.710;2022-12-29T08:45:57;6.13;;;1.85;;
74543;SDS011;63016;55.030;38.710;2022-12-29T08:48:23;4.85;;;2.17;;
74543;SDS011;63016;55.030;38.710;2022-12-29T08:50:49;9.70;;;2.13;;
74543;SDS011;63016;55.030;38.710;2022-12-29T08:53:15;7.22;;;1.90;;
74543;SDS011;63016;55.030;38.710;2022-12-29T08:55:44;6.68;;;2.30;;
74543;SDS011;63016;55.030;38.710;2022-12-29T08:58:12;5.53;;;1.85;;
74543;SDS011;63016;55.030;38.710;2022-12-29T09:00:40;6.80;;;2.28;;
74543;SDS011;63016;55.030;38.710;2022-12-29T09:03:06;5.97;;;1.83;;
74543;SDS011;63016;55.030;38.710;2022-12-29T09:05:32;7.20;;;2.03;;
74543;SDS011;63016;55.030;38.710;2022-12-29T09:07:57;5.78;;;1.98;;
74543;SDS011;63016;55.030;38.710;2022-12-29T09:10:23;4.97;;;1.70;;
74543;SDS011;63016;55.030;38.710;2022-12-29T09:12:48;6.07;;;2.20;;
74543;SDS011;63016;55.030;38.710;2022-12-29T09:15:14;4.03;;;1.80;;
74543;SDS011;63016;55.030;38.710;2022-12-29T09:17:40;4.82;;;1.58;;
74543;SDS011;63016;55.030;38.710;2022-12-29T09:20:10;5.18;;;1.90;;
74543;SDS011;63016;55.030;38.710;2022-12-29T09:22:37;3.75;;;1.45;;
74543;SDS011;63016;55.030;38.710;2022-12-29T09:25:03;7.18;;;1.42;;
74543;SDS011;63016;55.030;38.710;2022-12-29T09:27:29;4.22;;;1.58;;
74543;SDS011;63016;55.030;38.710;2022-12-29T09:29:55;4.15;;;1.58;;
74543;SDS011;63016;55.030;38.710;2022-12-29T09:32:21;7.07;;;1.83;;
74543;SDS011;63016;55.030;38.710;2022-12-29T09:34:46;4.38;;;1.50;;
74543;SDS011;63016;55.030;38.710;2022-12-29T09:37:12;3.85;;;1.67;;
74543;SDS011;63016;55.030;38.710;2022-12-29T09:39:37;4.40;;;1.80;;
74543;SDS011;63016;55.030;38.710;2022-12-29T09:47:27;5.82;;;1.70;;
74543;SDS011;63016;55.030;38.710;2022-12-29T09:50:17;3.92;;;1.70;;
74543;SDS011;63016;55.030;38.710;2022-12-29T09:52:48;5.93;;;1.50;;
74543;SDS011;63016;55.030;38.710;2022-12-29T09:55:22;7.20;;;2.15;;
74543;SDS011;63016;55.030;38.710;2022-12-29T09:58:05;9.02;;;2.38;;
74543;SDS011;63016;55.030;38.710;2022-12-29T10:00:36;6.63;;;1.90;;
74543;SDS011;63016;55.030;38.710;2022-12-29T10:03:16;6.40;;;1.83;;
74543;SDS011;63016;55.030;38.710;2022-12-29T10:08:27;5.38;;;1.83;;
74543;SDS011;63016;55.030;38.710;2022-12-29T10:13:29;5.65;;;1.98;;
74543;SDS011;63016;55.030;38.710;2022-12-29T10:24:15;5.03;;;2.35;;
74543;SDS011;63016;55.030;38.710;2022-12-29T10:26:43;9.38;;;2.22;;
74543;SDS011;63016;55.030;38.710;2022-12-29T10:29:19;7.28;;;2.40;;
74543;SDS011;63016;55.030;38.710;2022-12-29T10:31:54;3.97;;;1.88;;
74543;SDS011;63016;55.030;38.710;2022-12-29T10:34:22;7.30;;;1.90;;
74543;SDS011;63016;55.030;38.710;2022-12-29T10:36:58;7.75;;;2.00;;
74543;SDS011;63016;55.030;38.710;2022-12-29T10:39:38;5.80;;;1.63;;
74543;SDS011;63016;55.030;38.710;2022-12-29T10:42:28;4.63;;;1.88;;
74543;SDS011;63016;55.030;38.710;2022-12-29T10:44:58;5.28;;;1.73;;
74543;SDS011;63016;55.030;38.710;2022-12-29T10:47:25;5.53;;;1.85;;
74543;SDS011;63016;55.030;38.710;2022-12-29T10:49:54;7.97;;;2.30;;
74543;SDS011;63016;55.030;38.710;2022-12-29T10:52:20;6.40;;;1.95;;
74543;SDS011;63016;55.030;38.710;2022-12-29T10:57:26;3.55;;;1.55;;
74543;SDS011;63016;55.030;38.710;2022-12-29T10:59:53;4.43;;;1.80;;
74543;SDS011;63016;55.030;38.710;2022-12-29T11:05:10;4.97;;;1.58;;
74543;SDS011;63016;55.030;38.710;2022-12-29T11:07:43;3.53;;;1.80;;
74543;SDS011;63016;55.030;38.710;2022-12-29T11:10:28;2.97;;;1.55;;
74543;SDS011;63016;55.030;38.710;2022-12-29T11:13:13;5.60;;;1.67;;
74543;SDS011;63016;55.030;38.710;2022-12-29T11:15:48;4.07;;;2.08;;
74543;SDS011;63016;55.030;38.710;2022-12-29T11:18:34;5.45;;;1.83;;
74543;SDS011;63016;55.030;38.710;2022-12-29T11:21:03;4.70;;;1.92;;
74543;SDS011;63016;55.030;38.710;2022-12-29T11:28:39;5.00;;;2.40;;
74543;SDS011;63016;55.030;38.710;2022-12-29T11:31:06;4.40;;;1.60;;
74543;SDS011;63016;55.030;38.710;2022-12-29T11:33:34;3.40;;;1.70;;
74543;SDS011;63016;55.030;38.710;2022-12-29T11:36:20;5.30;;;2.00;;
74543;SDS011;63016;55.030;38.710;2022-12-29T11:38:50;5.22;;;2.10;;
74543;SDS011;63016;55.030;38.710;2022-12-29T11:41:27;4.25;;;1.98;;
74543;SDS011;63016;55.030;38.710;2022-12-29T11:43:55;2.92;;;2.00;;
74543;SDS011;63016;55.030;38.710;2022-12-29T11:46:25;5.90;;;2.47;;
74543;SDS011;63016;55.030;38.710;2022-12-29T11:48:51;5.25;;;1.92;;
74543;SDS011;63016;55.030;38.710;2022-12-29T11:51:23;3.67;;;1.80;;
74543;SDS011;63016;55.030;38.710;2022-12-29T11:53:56;3.75;;;1.83;;
74543;SDS011;63016;55.030;38.710;2022-12-29T11:56:41;4.45;;;2.20;;
74543;SDS011;63016;55.030;38.710;2022-12-29T12:05:29;5.32;;;2.03;;
74543;SDS011;63016;55.030;38.710;2022-12-29T12:10:34;9.40;;;2.40;;
74543;SDS011;63016;55.030;38.710;2022-12-29T12:15:49;4.43;;;2.17;;
74543;SDS011;63016;55.030;38.710;2022-12-29T12:21:05;5.35;;;2.20;;
74543;SDS011;63016;55.030;38.710;2022-12-29T12:26:12;3.50;;;1.75;;
74543;SDS011;63016;55.030;38.710;2022-12-29T12:34:10;6.18;;;2.22;;
74543;SDS011;63016;55.030;38.710;2022-12-29T12:39:23;5.53;;;2.08;;
74543;SDS011;63016;55.030;38.710;2022-12-29T12:50:32;6.88;;;1.98;;
74543;SDS011;63016;55.030;38.710;2022-12-29T13:04:52;5.40;;;1.77;;
74543;SDS011;63016;55.030;38.710;2022-12-29T13:12:41;5.32;;;2.05;;
74543;SDS011;63016;55.030;38.710;2022-12-29T13:23:22;7.18;;;2.60;;
74543;SDS011;63016;55.030;38.710;2022-12-29T13:37:00;8.32;;;3.90;;
74543;SDS011;63016;55.030;38.710;2022-12-29T13:39:35;7.95;;;3.30;;
74543;SDS011;63016;55.030;38.710;2022-12-29T13:42:04;12.25;;;4.22;;
74543;SDS011;63016;55.030;38.710;2022-12-29T13:49:50;6.47;;;3.25;;
74543;SDS011;63016;55.030;38.710;2022-12-29T13:52:32;10.75;;;3.83;;
74543;SDS011;63016;55.030;38.710;2022-12-29T13:55:17;9.55;;;3.60;;
74543;SDS011;63016;55.030;38.710;2022-12-29T14:00:22;14.05;;;4.72;;
74543;SDS011;63016;55.030;38.710;2022-12-29T14:03:41;10.48;;;3.72;;
74543;SDS011;63016;55.030;38.710;2022-12-29T14:08:50;12.45;;;4.93;;
74543;SDS011;63016;55.030;38.710;2022-12-29T14:11:28;8.25;;;3.92;;
74543;SDS011;63016;55.030;38.710;2022-12-29T14:13:57;9.13;;;3.88;;
74543;SDS011;63016;55.030;38.710;2022-12-29T14:16:31;11.00;;;4.43;;
74543;SDS011;63016;55.030;38.710;2022-12-29T14:19:05;10.75;;;4.47;;
74543;SDS011;63016;55.030;38.710;2022-12-29T14:21:59;14.88;;;4.55;;
74543;SDS011;63016;55.030;38.710;2022-12-29T14:24:32;12.02;;;4.88;;
74543;SDS011;63016;55.030;38.710;2022-12-29T14:34:46;10.57;;;4.20;;
74543;SDS011;63016;55.030;38.710;2022-12-29T14:39:47;9.55;;;4.60;;
74543;SDS011;63016;55.030;38.710;2022-12-29T14:42:13;11.18;;;4.75;;
74543;SDS011;63016;55.030;38.710;2022-12-29T14:44:52;13.35;;;4.63;;
74543;SDS011;63016;55.030;38.710;2022-12-29T14:49:56;16.48;;;5.60;;
74543;SDS011;63016;55.030;38.710;2022-12-29T14:53:00;12.25;;;4.68;;
74543;SDS011;63016;55.030;38.710;2022-12-29T14:55:30;14.38;;;4.75;;
74543;SDS011;63016;55.030;38.710;2022-12-29T14:57:59;13.40;;;5.22;;
74543;SDS011;63016;55.030;38.710;2022-12-29T15:00:29;13.80;;;5.45;;
74543;SDS011;63016;55.030;38.710;2022-12-29T15:05:42;15.65;;;5.60;;
74543;SDS011;63016;55.030;38.710;2022-12-29T15:08:12;14.48;;;5.53;;
74543;SDS011;63016;55.030;38.710;2022-12-29T15:11:00;12.75;;;5.13;;
74543;SDS011;63016;55.030;38.710;2022-12-29T15:13:36;18.25;;;5.93;;
74543;SDS011;63016;55.030;38.710;2022-12-29T15:16:04;15.40;;;5.65;;
74543;SDS011;63016;55.030;38.710;2022-12-29T15:18:45;13.38;;;5.30;;
74543;SDS011;63016;55.030;38.710;2022-12-29T15:21:11;16.10;;;5.70;;
74543;SDS011;63016;55.030;38.710;2022-12-29T15:23:39;13.20;;;5.60;;
74543;SDS011;63016;55.030;38.710;2022-12-29T15:26:09;14.57;;;6.53;;
74543;SDS011;63016;55.030;38.710;2022-12-29T15:28:40;21.15;;;6.13;;
74543;SDS011;63016;55.030;38.710;2022-12-29T15:31:15;15.80;;;5.57;;
74543;SDS011;63016;55.030;38.710;2022-12-29T15:33:49;17.40;;;5.93;;
74543;SDS011;63016;55.030;38.710;2022-12-29T15:36:21;16.42;;;5.65;;
74543;SDS011;63016;55.030;38.710;2022-12-29T15:38:51;18.75;;;6.22;;
74543;SDS011;63016;55.030;38.710;2022-12-29T15:44:34;19.50;;;6.45;;
74543;SDS011;63016;55.030;38.710;2022-12-29T15:47:08;16.00;;;5.53;;
74543;SDS011;63016;55.030;38.710;2022-12-29T15:49:39;18.55;;;6.18;;
74543;SDS011;63016;55.030;38.710;2022-12-29T15:52:08;15.25;;;5.32;;
74543;SDS011;63016;55.030;38.710;2022-12-29T15:54:34;17.95;;;5.65;;
74543;SDS011;63016;55.030;38.710;2022-12-29T15:57:01;20.80;;;6.22;;
74543;SDS011;63016;55.030;38.710;2022-12-29T15:59:31;15.40;;;5.80;;
74543;SDS011;63016;55.030;38.710;2022-12-29T16:01:59;15.68;;;5.90;;
74543;SDS011;63016;55.030;38.710;2022-12-29T16:04:27;16.50;;;5.50;;
74543;SDS011;63016;55.030;38.710;2022-12-29T16:07:05;17.58;;;6.47;;
74543;SDS011;63016;55.030;38.710;2022-12-29T16:09:41;20.08;;;5.88;;
74543;SDS011;63016;55.030;38.710;2022-12-29T16:12:21;15.27;;;5.40;;
74543;SDS011;63016;55.030;38.710;2022-12-29T16:15:07;17.58;;;5.25;;
74543;SDS011;63016;55.030;38.710;2022-12-29T16:17:57;18.13;;;6.55;;
74543;SDS011;63016;55.030;38.710;2022-12-29T16:20:24;20.35;;;6.40;;
74543;SDS011;63016;55.030;38.710;2022-12-29T16:22:59;18.95;;;6.43;;
74543;SDS011;63016;55.030;38.710;2022-12-29T16:25:27;17.80;;;6.70;;
74543;SDS011;63016;55.030;38.710;2022-12-29T16:27:56;21.20;;;6.82;;
74543;SDS011;63016;55.030;38.710;2022-12-29T16:30:24;15.32;;;6.20;;
74543;SDS011;63016;55.030;38.710;2022-12-29T16:32:51;22.92;;;6.80;;
74543;SDS011;63016;55.030;38.710;2022-12-29T16:35:20;19.27;;;6.55;;
74543;SDS011;63016;55.030;38.710;2022-12-29T16:37:48;19.83;;;6.55;;
74543;SDS011;63016;55.030;38.710;2022-12-29T16:40:32;18.23;;;6.28;;
74543;SDS011;63016;55.030;38.710;2022-12-29T16:42:58;18.92;;;6.35;;
74543;SDS011;63016;55.030;38.710;2022-12-29T16:50:32;18.42;;;6.85;;
74543;SDS011;63016;55.030;38.710;2022-12-29T16:52:59;16.60;;;5.88;;
74543;SDS011;63016;55.030;38.710;2022-12-29T16:55:25;21.10;;;6.43;;
74543;SDS011;63016;55.030;38.710;2022-12-29T16:57:52;16.95;;;6.32;;
74543;SDS011;63016;55.030;38.710;2022-12-29T17:00:21;15.18;;;6.05;;
74543;SDS011;63016;55.030;38.710;2022-12-29T17:02:49;18.02;;;6.40;;
74543;SDS011;63016;55.030;38.710;2022-12-29T17:05:17;21.55;;;6.80;;
74543;SDS011;63016;55.030;38.710;2022-12-29T17:07:43;15.32;;;6.25;;
74543;SDS011;63016;55.030;38.710;2022-12-29T17:10:09;12.85;;;5.45;;
74543;SDS011;63016;55.030;38.710;2022-12-29T17:12:35;14.90;;;6.15;;
74543;SDS011;63016;55.030;38.710;2022-12-29T17:15:05;20.35;;;6.22;;
74543;SDS011;63016;55.030;38.710;2022-12-29T17:17:41;20.13;;;6.45;;
74543;SDS011;63016;55.030;38.710;2022-12-29T17:20:16;20.13;;;6.43;;
74543;SDS011;63016;55.030;38.710;2022-12-29T17:22:42;19.98;;;6.30;;
74543;SDS011;63016;55.030;38.710;2022-12-29T17:25:11;18.88;;;6.15;;
74543;SDS011;63016;55.030;38.710;2022-12-29T17:27:57;18.05;;;6.88;;
74543;SDS011;63016;55.030;38.710;2022-12-29T17:30:25;21.13;;;6.43;;
74543;SDS011;63016;55.030;38.710;2022-12-29T17:33:03;21.35;;;7.63;;
74543;SDS011;63016;55.030;38.710;2022-12-29T17:35:32;16.70;;;5.88;;
74543;SDS011;63016;55.030;38.710;2022-12-29T17:37:58;17.83;;;5.97;;
74543;SDS011;63016;55.030;38.710;2022-12-29T17:40:28;16.52;;;6.85;;
74543;SDS011;63016;55.030;38.710;2022-12-29T17:42:57;14.13;;;6.35;;
74543;SDS011;63016;55.030;38.710;2022-12-29T17:45:23;20.50;;;7.30;;
74543;SDS011;63016;55.030;38.710;2022-12-29T17:47:51;22.60;;;6.95;;
74543;SDS011;63016;55.030;38.710;2022-12-29T17:50:20;16.65;;;6.35;;